Castres-Mazamet Airport

LFCK · Tarn, Occitanie, Francia

METAR pasados LFCK · Castres-Mazamet Airport

A continuación puedes ver los METAR de los últimos días. Selecciona un año para ver los METAR más antiguos, desde el año 2007 en adelante.

30 de marzo de 2023

Hora Código Tiempo Temp. Visibilidad Cielo nuboso Viento METAR/SPECI
01:30
V
15 °C 10 km+ - 130° 130° 16 kt METAR LFCK 292330Z AUTO 13016KT CAVOK 15/09 Q1018
01:00
V
15 °C 10 km+ - 130° 130° 16 kt METAR LFCK 292300Z AUTO 13016KT CAVOK 15/09 Q1018
00:30
V
16 °C 10 km+ - 120° 120° 14 kt METAR LFCK 292230Z AUTO 12014KT CAVOK 16/09 Q1018
00:00
V
16 °C 10 km+ - 120° 120° 16 kt METAR LFCK 292200Z AUTO 12016KT CAVOK 16/09 Q1018

29 de marzo de 2023

Hora Código Tiempo Temp. Visibilidad Cielo nuboso Viento METAR/SPECI
23:30
V
16 °C 10 km+ - 120° 120° 21 kt METAR LFCK 292130Z AUTO 12021KT CAVOK 16/09 Q1018
23:00
V
17 °C 10 km+ - 120° 120° 20 kt METAR LFCK 292100Z AUTO 12020KT CAVOK 17/08 Q1017 BECMG 13018G28KT
22:30
V
18 °C 10 km+ - 120° 120° 16 kt METAR LFCK 292030Z AUTO 12016KT CAVOK 18/08 Q1018 BECMG 13018G28KT
22:00
V
18 °C 10 km+ - 120° 120° 17 kt METAR LFCK 292000Z AUTO 12017KT CAVOK 18/09 Q1018 BECMG 13018G28KT
21:30
V
18 °C 10 km+ - 120° 120° 11 kt METAR LFCK 291930Z AUTO 12011KT CAVOK 18/09 Q1018 BECMG 13018G28KT
21:00
V
19 °C 10 km+ - 120° 120° 14 kt METAR LFCK 291900Z AUTO 12014KT CAVOK 19/09 Q1018 BECMG 13018G28KT
20:30
V
19 °C 10 km+ - 120° 120° 15 kt METAR LFCK 291830Z AUTO 12015KT CAVOK 19/08 Q1018 BECMG 13018G28KT
20:00
V
20 °C 10 km+ - 110° 110° 17 kt METAR LFCK 291800Z AUTO 11017KT CAVOK 20/09 Q1018 BECMG 13018G28KT
19:30
V
21 °C 10 km+ - 120° 120° 15 kt METAR LFCK 291730Z AUTO 12015KT CAVOK 21/09 Q1017 BECMG 13018G28KT
19:00
V
22 °C 10 km+ - 130° 130° 13 kt METAR LFCK 291700Z AUTO 13013KT CAVOK 22/09 Q1017 BECMG 13018G28KT
18:30
V
23 °C 10 km+ - 130° 130° 14 kt METAR LFCK 291630Z AUTO 13014KT CAVOK 23/10 Q1017 BECMG 13018G28KT
18:00
V
24 °C 10 km+ - 130° 130° 15 kt METAR LFCK 291600Z AUTO 13015KT CAVOK 24/10 Q1018 BECMG 13018G28KT
17:30
V
25 °C 10 km+ - 130° 130° 16 kt METAR LFCK 291530Z AUTO 13016KT CAVOK 25/09 Q1018 BECMG 13018G28KT
17:00
V
26 °C 10 km+ - 140° 140° 12 kt METAR LFCK 291500Z AUTO 14012KT CAVOK 26/10 Q1018 BECMG 13018G28KT
16:30
V
26 °C 10 km+ - 140° 140° 12 kt METAR LFCK 291430Z AUTO 14012KT CAVOK 26/09 Q1019 BECMG 12016G26KT
16:00
V
27 °C 10 km+ - 150° 150° 11 kt METAR LFCK 291400Z AUTO 15011KT CAVOK 27/09 Q1019 BECMG 12016G26KT
15:30
V
27 °C 10 km+ - 150° 150° 10 kt METAR LFCK 291330Z AUTO 15010KT CAVOK 27/08 Q1019 BECMG 12016G26KT
15:00
V
26 °C 10 km+ - Var Var 5 kt METAR LFCK 291300Z AUTO VRB05KT CAVOK 26/10 Q1019 BECMG 12016G26KT
14:30
V
24 °C 10 km+ - 310° 310° 4 kt METAR LFCK 291230Z AUTO 31004KT 280V350 CAVOK 24/10 Q1020 BECMG 12016G26KT
14:00
V
24 °C 10 km+ - 300° 300° 4 kt METAR LFCK 291200Z AUTO 30004KT 270V340 CAVOK 24/09 Q1020 BECMG 12016G26KT
13:30
V
23 °C 10 km+ - 310° 310° 4 kt METAR LFCK 291130Z AUTO 31004KT CAVOK 23/09 Q1020 BECMG 12016G26KT
13:00
V
21 °C 10 km+ - 300° 300° 4 kt METAR LFCK 291100Z AUTO 30004KT CAVOK 21/08 Q1021 BECMG 12012KT
12:30
V
20 °C 10 km+ - 290° 290° 4 kt METAR LFCK 291030Z AUTO 29004KT 250V340 CAVOK 20/08 Q1021 BECMG 12012KT
12:00
V
19 °C 10 km+ - 320° 320° 4 kt METAR LFCK 291000Z AUTO 32004KT 290V020 CAVOK 19/08 Q1021 BECMG 12012KT
11:30
V
19 °C 10 km+ - Var Var 2 kt METAR LFCK 290930Z AUTO VRB02KT CAVOK 19/08 Q1021 BECMG 12012KT
11:00
V
17 °C 10 km+ - Var Var 1 kt METAR LFCK 290900Z AUTO VRB01KT CAVOK 17/06 Q1022 BECMG 12012KT
10:30
V
15 °C 10 km+ - Var Var 2 kt METAR LFCK 290830Z AUTO VRB02KT CAVOK 15/05 Q1022 NOSIG
10:00
V
13 °C 10 km+ - Var Var 2 kt METAR LFCK 290800Z AUTO VRB02KT CAVOK 13/03 Q1022 NOSIG
09:30
V
10 °C 10 km+ - Var Var 3 kt METAR LFCK 290730Z AUTO VRB03KT CAVOK 10/02 Q1022 NOSIG
09:00
V
8 °C 10 km+ - Var Var 4 kt METAR LFCK 290700Z AUTO VRB04KT CAVOK 08/02 Q1022 NOSIG
08:30
V
9 °C 10 km+ - Var Var 3 kt METAR LFCK 290630Z AUTO VRB03KT CAVOK 09/01 Q1022 NOSIG
08:00
V
9 °C 10 km+ - Var Var 1 kt METAR LFCK 290600Z AUTO VRB01KT CAVOK 09/02 Q1022 NOSIG
07:30
V
11 °C 10 km+ - 120° 120° 5 kt METAR LFCK 290530Z AUTO 12005KT 080V180 CAVOK 11/03 Q1021 NOSIG
07:00
V
12 °C 10 km+ - 090° 090° 6 kt METAR LFCK 290500Z AUTO 09006KT 020V140 CAVOK 12/02 Q1021
06:30
V
11 °C 10 km+ - 130° 130° 10 kt METAR LFCK 290430Z AUTO 13010KT CAVOK 11/02 Q1022
06:00
V
9 °C 10 km+ - 120° 120° 3 kt METAR LFCK 290400Z AUTO 12003KT 090V150 CAVOK 09/00 Q1022
05:30
V
11 °C 10 km+ - 080° 080° 5 kt METAR LFCK 290330Z AUTO 08005KT CAVOK 11/01 Q1022
05:00
V
12 °C 10 km+ - Var Var 3 kt METAR LFCK 290300Z AUTO VRB03KT CAVOK 12/02 Q1022
04:30
V
12 °C 10 km+ - 130° 130° 11 kt METAR LFCK 290230Z AUTO 13011KT CAVOK 12/02 Q1022
04:00
V
14 °C 10 km+ - 130° 130° 12 kt METAR LFCK 290200Z AUTO 13012KT CAVOK 14/02 Q1022
03:30
V
14 °C 10 km+ - 130° 130° 15 kt METAR LFCK 290130Z AUTO 13015KT CAVOK 14/03 Q1022
03:00
V
12 °C 10 km+ - 120° 120° 10 kt METAR LFCK 290100Z AUTO 12010KT 090V150 CAVOK 12/02 Q1022
02:30
V
12 °C 10 km+ - 090° 090° 4 kt METAR LFCK 290030Z AUTO 09004KT 030V150 CAVOK 12/01 Q1023
02:00
V
11 °C 10 km+ - 120° 120° 8 kt METAR LFCK 290000Z AUTO 12008KT CAVOK 11/01 Q1023
01:30
V
12 °C 10 km+ - 120° 120° 8 kt METAR LFCK 282330Z AUTO 12008KT CAVOK 12/00 Q1023
01:00
V
12 °C 10 km+ - 130° 130° 10 kt METAR LFCK 282300Z AUTO 13010KT CAVOK 12/M00 Q1023
00:30
V
12 °C 10 km+ - 130° 130° 10 kt METAR LFCK 282230Z AUTO 13010KT CAVOK 12/M02 Q1023
00:00
V
12 °C 10 km+ - 120° 120° 9 kt METAR LFCK 282200Z AUTO 12009KT CAVOK 12/M02 Q1023

28 de marzo de 2023

Hora Código Tiempo Temp. Visibilidad Cielo nuboso Viento METAR/SPECI
23:30
V
11 °C 10 km+ - 120° 120° 9 kt METAR LFCK 282130Z AUTO 12009KT CAVOK 11/M02 Q1024
23:00
V
13 °C 10 km+ - 130° 130° 12 kt METAR LFCK 282100Z AUTO 13012KT CAVOK 13/M04 Q1024 NOSIG
22:30
V
12 °C 10 km+ - 130° 130° 13 kt METAR LFCK 282030Z AUTO 13013KT CAVOK 12/M03 Q1024 NOSIG
22:00
V
13 °C 10 km+ - 120° 120° 12 kt METAR LFCK 282000Z AUTO 12012KT CAVOK 13/M01 Q1023 NOSIG
21:30
V
14 °C 10 km+ - 120° 120° 14 kt METAR LFCK 281930Z AUTO 12014KT CAVOK 14/M01 Q1023 NOSIG
21:00
V
14 °C 10 km+ - 120° 120° 15 kt METAR LFCK 281900Z AUTO 12015KT CAVOK 14/M01 Q1023 NOSIG
20:30
V
15 °C 10 km+ - 120° 120° 15 kt METAR LFCK 281830Z AUTO 12015KT CAVOK 15/M01 Q1023 NOSIG
20:00
V
16 °C 10 km+ - 120° 120° 15 kt METAR LFCK 281800Z AUTO 12015KT CAVOK 16/M02 Q1023 NOSIG
19:30
V
17 °C 10 km+ - 120° 120° 13 kt METAR LFCK 281730Z AUTO 12013KT CAVOK 17/M03 Q1023 NOSIG
19:00
V
19 °C 10 km+ - 130° 130° 13 kt METAR LFCK 281700Z AUTO 13013KT CAVOK 19/M02 Q1022 NOSIG
18:30
V
19 °C 10 km+ - 130° 130° 13 kt METAR LFCK 281630Z AUTO 13013KT CAVOK 19/M01 Q1022 NOSIG
18:00
V
20 °C 10 km+ - 110° 110° 11 kt METAR LFCK 281600Z AUTO 11011KT CAVOK 20/00 Q1022 NOSIG
17:30
V
20 °C 10 km+ - 120° 120° 12 kt METAR LFCK 281530Z AUTO 12012KT CAVOK 20/01 Q1022 NOSIG
17:00
V
21 °C 10 km+ - 130° 130° 10 kt METAR LFCK 281500Z AUTO 13010KT CAVOK 21/01 Q1022 NOSIG
16:30
V
20 °C 10 km+ - 130° 130° 7 kt METAR LFCK 281430Z AUTO 13007KT 090V180 CAVOK 20/M00 Q1023 NOSIG
16:00
V
20 °C 10 km+ - Var Var 3 kt METAR LFCK 281400Z AUTO VRB03KT CAVOK 20/03 Q1023 NOSIG
15:30
V
19 °C 10 km+ - 300° 300° 3 kt METAR LFCK 281330Z AUTO 30003KT 260V340 CAVOK 19/04 Q1023 BECMG 12012KT
15:00
V
18 °C 10 km+ - Var Var 2 kt METAR LFCK 281300Z AUTO VRB02KT CAVOK 18/04 Q1023 BECMG 12012KT
14:30
V
17 °C 10 km+ - 270° 270° 5 kt METAR LFCK 281230Z AUTO 27005KT 190V290 CAVOK 17/03 Q1024 BECMG 12012KT
14:00
V
17 °C 10 km+ - 290° 290° 7 kt METAR LFCK 281200Z AUTO 29007KT 260V320 CAVOK 17/03 Q1024 BECMG 12012KT
13:30
V
16 °C 10 km+ - 280° 280° 4 kt METAR LFCK 281130Z AUTO 28004KT 230V320 CAVOK 16/03 Q1024 BECMG 12012KT
13:00
V
15 °C 10 km+ - Var Var 3 kt METAR LFCK 281100Z AUTO VRB03KT CAVOK 15/03 Q1024 NOSIG
12:30
V
14 °C 10 km+ - 260° 260° 3 kt METAR LFCK 281030Z AUTO 26003KT 210V320 CAVOK 14/03 Q1025 NOSIG
12:00
V
13 °C 10 km+ - 280° 280° 3 kt METAR LFCK 281000Z AUTO 28003KT 240V330 CAVOK 13/03 Q1025 NOSIG
11:30
V
12 °C 10 km+ - 300° 300° 4 kt METAR LFCK 280930Z AUTO 30004KT 270V330 CAVOK 12/03 Q1025 NOSIG
11:00
V
11 °C 10 km+ - Var 000° 0 kt METAR LFCK 280900Z AUTO 00000KT CAVOK 11/03 Q1025 NOSIG
10:30
V
10 °C 10 km+ - Var Var 3 kt METAR LFCK 280830Z AUTO VRB03KT CAVOK 10/03 Q1025 NOSIG
10:00
V
9 °C 10 km+ - Var Var 2 kt METAR LFCK 280800Z AUTO VRB02KT CAVOK 09/02 Q1025 NOSIG
09:30
V
7 °C 10 km+ - Var Var 2 kt METAR LFCK 280730Z AUTO VRB02KT CAVOK 07/02 Q1025 NOSIG
09:00
V
6 °C 10 km+ - 060° 060° 3 kt METAR LFCK 280700Z AUTO 06003KT CAVOK 06/01 Q1025 NOSIG
08:30
V
4 °C 10 km+ - 100° 100° 4 kt METAR LFCK 280630Z AUTO 10004KT CAVOK 04/01 Q1025 NOSIG
08:00
V
1 °C 10 km+ - 100° 100° 6 kt METAR LFCK 280600Z AUTO 10006KT CAVOK 01/M00 Q1025 NOSIG
07:30
V
1 °C 10 km+ - 100° 100° 5 kt METAR LFCK 280530Z AUTO 10005KT CAVOK 01/M01 Q1025 NOSIG
07:00
V
2 °C 10 km+ - 090° 090° 5 kt METAR LFCK 280500Z AUTO 09005KT CAVOK 02/M00 Q1025
06:30
V
3 °C 10 km+ - 100° 100° 3 kt METAR LFCK 280430Z AUTO 10003KT CAVOK 03/01 Q1025
06:00
V
2 °C 10 km+ - 100° 100° 4 kt METAR LFCK 280400Z AUTO 10004KT CAVOK 02/M00 Q1025
05:30
V
2 °C 10 km+ - Var Var 3 kt METAR LFCK 280330Z AUTO VRB03KT CAVOK 02/01 Q1025
05:00
V
2 °C 10 km+ - 090° 090° 5 kt METAR LFCK 280300Z AUTO 09005KT CAVOK 02/01 Q1025
04:30
V
2 °C 10 km+ - 100° 100° 4 kt METAR LFCK 280230Z AUTO 10004KT CAVOK 02/00 Q1025
04:00
V
4 °C 10 km+ - 080° 080° 5 kt METAR LFCK 280200Z AUTO 08005KT CAVOK 04/02 Q1026
03:30
V
4 °C 10 km+ - 090° 090° 3 kt METAR LFCK 280130Z AUTO 09003KT CAVOK 04/02 Q1026
03:00
V
3 °C 10 km+ - 110° 110° 6 kt METAR LFCK 280100Z AUTO 11006KT CAVOK 03/02 Q1026
02:30
V
3 °C 10 km+ - Var Var 1 kt METAR LFCK 280030Z AUTO VRB01KT CAVOK 03/02 Q1026
02:00
V
4 °C 10 km+ - Var 000° 0 kt METAR LFCK 280000Z AUTO 00000KT CAVOK 04/03 Q1026
01:30
V
3 °C 10 km+ - Var 000° 0 kt METAR LFCK 272330Z AUTO 00000KT CAVOK 03/02 Q1026
01:00
V
5 °C 10 km+ - 180° 180° 1 kt METAR LFCK 272300Z AUTO 18001KT CAVOK 05/03 Q1026
00:30
V
5 °C 10 km+ - 160° 160° 2 kt METAR LFCK 272230Z AUTO 16002KT CAVOK 05/03 Q1026
00:00
V
5 °C 10 km+ - 080° 080° 3 kt METAR LFCK 272200Z AUTO 08003KT CAVOK 05/03 Q1026

27 de marzo de 2023

Hora Código Tiempo Temp. Visibilidad Cielo nuboso Viento METAR/SPECI
23:30
V
5 °C 10 km+ - 070° 070° 3 kt METAR LFCK 272130Z AUTO 07003KT CAVOK 05/03 Q1026
23:00
V
7 °C 10 km+ - 150° 150° 2 kt METAR LFCK 272100Z AUTO 15002KT CAVOK 07/04 Q1026 NOSIG
22:30
V
6 °C 10 km+ - 050° 050° 5 kt METAR LFCK 272030Z AUTO 05005KT CAVOK 06/03 Q1026 NOSIG
22:00
V
9 °C 10 km+ - Var Var 3 kt METAR LFCK 272000Z AUTO VRB03KT CAVOK 09/04 Q1026 NOSIG
21:30
V
10 °C 10 km+ - 280° 280° 4 kt METAR LFCK 271930Z AUTO 28004KT CAVOK 10/04 Q1026 NOSIG
21:00
V
11 °C 10 km+ - 300° 300° 5 kt METAR LFCK 271900Z AUTO 30005KT CAVOK 11/04 Q1025 NOSIG
20:30
V
11 °C 10 km+ - 290° 290° 6 kt METAR LFCK 271830Z AUTO 29006KT CAVOK 11/04 Q1025 NOSIG
20:00
V
11 °C 10 km+ - 300° 300° 8 kt METAR LFCK 271800Z AUTO 30008KT CAVOK 11/03 Q1025 NOSIG
19:30
V
12 °C 10 km+ - 310° 310° 9 kt METAR LFCK 271730Z AUTO 31009KT CAVOK 12/03 Q1025 NOSIG
19:00
V
12 °C 10 km+ - 310° 310° 10 kt METAR LFCK 271700Z AUTO 31010KT CAVOK 12/03 Q1025 NOSIG
18:30
V
12 °C 10 km+ - 310° 310° 14 kt METAR LFCK 271630Z AUTO 31014KT 9999 FEW049 12/03 Q1025 NOSIG
18:00
V
13 °C 10 km+ - 310° 310° 13 kt METAR LFCK 271600Z AUTO 31013KT 9999 FEW045 SCT056 13/03 Q1025 NOSIG
17:30
V
13 °C 10 km+ 6.000 ft 320° 320° 11 kt METAR LFCK 271530Z AUTO 32011KT 290V350 9999 FEW044 SCT050 BKN060 13/04 Q1025 NOSIG
17:00
V
13 °C 10 km+ - 330° 330° 12 kt METAR LFCK 271500Z AUTO 33012KT 300V020 CAVOK 13/04 Q1025 NOSIG
16:30
V
13 °C 10 km+ 6.200 ft 320° 320° 12 kt METAR LFCK 271430Z AUTO 32012KT 300V360 9999 FEW049 OVC062 13/04 Q1025 NOSIG
16:00
V
12 °C 10 km+ - 320° 320° 13 kt METAR LFCK 271400Z AUTO 32013KT CAVOK 12/04 Q1025 NOSIG
15:30
V
12 °C 10 km+ - 320° 320° 12 kt METAR LFCK 271330Z AUTO 32012KT 300V360 CAVOK 12/03 Q1025 NOSIG
15:00
V
12 °C 10 km+ - 320° 320° 13 kt METAR LFCK 271300Z AUTO 32013KT CAVOK 12/03 Q1025 NOSIG
14:30
V
12 °C 10 km+ 4.700 ft 320° 320° 14 kt METAR LFCK 271230Z AUTO 32014KT 9999 OVC047 12/03 Q1024 NOSIG
14:00
V
12 °C 10 km+ 4.300 ft 330° 330° 14 kt METAR LFCK 271200Z AUTO 33014KT 9999 OVC043 12/04 Q1024 NOSIG
13:30
V
12 °C 10 km+ 4.200 ft 330° 330° 14 kt METAR LFCK 271130Z AUTO 33014KT 300V360 9999 BKN042 OVC048 12/04 Q1024 NOSIG
13:00
V
11 °C 10 km+ 3.800 ft 320° 320° 15 kt METAR LFCK 271100Z AUTO 32015KT 290V360 9999 BKN038 11/02 Q1024 NOSIG
12:30
V
12 °C 10 km+ - 330° 330° 13 kt METAR LFCK 271030Z AUTO 33013KT 300V020 9999 FEW026 SCT048 12/04 Q1024 NOSIG
12:00
V
11 °C 10 km+ 5.200 ft 330° 330° 14 kt METAR LFCK 271000Z AUTO 33014KT 9999 SCT024 SCT039 OVC052 11/05 Q1024 NOSIG
11:30
V
10 °C 10 km+ 5.000 ft 330° 330° 15 kt METAR LFCK 270930Z AUTO 33015KT 9999 FEW023 BKN050 10/06 Q1024 NOSIG
11:00
M
10 °C 10 km+ 1.900 ft 330° 330° 15 kt METAR LFCK 270900Z AUTO 33015KT 9999 BKN019 BKN025 BKN032 10/06 Q1024 NOSIG
10:30
M
10 °C 10 km+ 2.300 ft 320° 320° 12 kt METAR LFCK 270830Z AUTO 32012KT 9999 FEW013 SCT018 BKN023 10/06 Q1024 NOSIG
10:00
M
9 °C 10 km+ 1.400 ft 300° 300° 14 kt METAR LFCK 270800Z AUTO 30014KT 9999 BKN014 OVC045 09/07 Q1024 TEMPO 4000 -RA BECMG BKN020

Nosotros y terceros seguimos tu comportamiento en Internet en nuestro sitio web con cookies. Si continúas, asumimos que estás de acuerdo con nuestra Política de cookies.